createdAt,value
2023-02-01T00:01:18.676Z,89.97
2023-02-01T00:03:52.033Z,89.17
2023-02-01T00:06:25.402Z,88.44
2023-02-01T00:08:58.968Z,89.26
2023-02-01T00:11:32.316Z,88.94
2023-02-01T00:14:07.749Z,87.74
2023-02-01T00:16:42.302Z,87.85
2023-02-01T00:19:16.875Z,87.78
2023-02-01T00:21:50.350Z,87.04
2023-02-01T00:24:23.691Z,87.28
2023-02-01T00:26:56.939Z,87.95
2023-02-01T00:29:31.732Z,87.17
2023-02-01T00:32:05.786Z,87.65
2023-02-01T00:34:39.292Z,86.66
2023-02-01T00:37:12.815Z,85.28
2023-02-01T00:39:45.971Z,86.14
2023-02-01T00:42:19.224Z,85.79
2023-02-01T00:44:53.764Z,84.23
2023-02-01T00:47:27.779Z,85.01
2023-02-01T00:50:01.285Z,85.57
2023-02-01T00:52:34.478Z,85.60
2023-02-01T00:55:08.365Z,85.96
2023-02-01T00:57:41.839Z,84.83
2023-02-01T01:00:18.008Z,85.22
2023-02-01T01:02:51.337Z,85.46
2023-02-01T01:05:24.875Z,85.14
2023-02-01T01:07:58.264Z,86.17
2023-02-01T01:10:31.545Z,85.49
2023-02-01T01:13:05.034Z,85.56
2023-02-01T01:15:41.556Z,85.08
2023-02-01T01:18:14.883Z,85.77
2023-02-01T01:20:49.941Z,86.20
2023-02-01T01:23:23.531Z,85.59
2023-02-01T01:25:56.787Z,86.41
2023-02-01T01:28:30.559Z,86.16
2023-02-01T01:31:05.813Z,85.70
2023-02-01T01:33:39.477Z,85.63
2023-02-01T01:36:13.233Z,84.29
2023-02-01T01:38:47.531Z,84.55
2023-02-01T01:41:23.904Z,85.02
2023-02-01T01:43:58.719Z,83.60
2023-02-01T01:46:34.946Z,83.77
2023-02-01T01:49:12.682Z,83.82
2023-02-01T01:52:01.413Z,82.62
2023-02-01T01:54:37.298Z,82.88
2023-02-01T01:57:14.207Z,83.11
2023-02-01T01:59:52.201Z,82.88
2023-02-01T02:02:26.941Z,82.85
2023-02-01T02:05:00.334Z,82.61
2023-02-01T02:07:39.955Z,82.94
2023-02-01T02:10:14.600Z,82.86
2023-02-01T02:12:50.723Z,82.03
2023-02-01T02:15:25.041Z,82.70
2023-02-01T02:18:07.279Z,83.41
2023-02-01T02:21:04.121Z,83.07
2023-02-01T02:24:11.660Z,82.89
2023-02-01T02:27:04.838Z,81.67
2023-02-01T02:30:11.764Z,82.82
2023-02-01T02:33:10.623Z,82.42
2023-02-01T02:35:50.181Z,82.30
2023-02-01T02:38:31.978Z,80.86
2023-02-01T02:41:39.758Z,82.55
2023-02-01T02:44:33.971Z,81.77
2023-02-01T02:47:26.587Z,82.00
2023-02-01T02:50:29.580Z,82.14
2023-02-01T02:53:27.813Z,82.57
2023-02-01T02:56:20.056Z,82.16
2023-02-01T02:59:11.816Z,83.13
2023-02-01T03:02:03.283Z,82.82
2023-02-01T03:04:36.586Z,83.03
2023-02-01T03:07:15.307Z,83.42
2023-02-01T03:09:51.381Z,83.75
2023-02-01T03:12:57.526Z,83.20
2023-02-01T03:15:37.748Z,83.25
2023-02-01T03:18:17.203Z,83.68
2023-02-01T03:20:54.403Z,83.03
2023-02-01T03:23:32.974Z,82.96
2023-02-01T03:26:11.937Z,82.82
2023-02-01T03:28:50.197Z,82.24
2023-02-01T03:31:24.265Z,82.33
2023-02-01T03:33:58.090Z,82.43
2023-02-01T03:36:37.952Z,82.62
2023-02-01T03:39:17.817Z,82.36
2023-02-01T03:41:56.110Z,82.53
2023-02-01T03:44:35.823Z,83.06
2023-02-01T03:47:13.739Z,82.75
2023-02-01T03:49:50.908Z,83.24
2023-02-01T03:52:28.152Z,82.41
2023-02-01T03:55:03.347Z,82.12
2023-02-01T03:57:41.545Z,82.06
2023-02-01T04:00:19.752Z,81.45
2023-02-01T04:02:54.308Z,81.64
2023-02-01T04:05:27.883Z,81.11
2023-02-01T04:08:01.654Z,81.21
2023-02-01T04:10:34.995Z,80.49
2023-02-01T04:13:10.384Z,80.63
2023-02-01T04:15:44.153Z,79.75
2023-02-01T04:18:17.547Z,80.19
2023-02-01T04:20:50.836Z,79.89
2023-02-01T04:23:24.415Z,80.46
2023-02-01T04:26:01.470Z,80.16
2023-02-01T04:28:36.577Z,79.91
2023-02-01T04:31:10.257Z,79.98
2023-02-01T04:33:43.551Z,79.77
2023-02-01T04:36:20.606Z,79.99
2023-02-01T04:38:54.594Z,79.29
2023-02-01T04:41:27.811Z,79.72
2023-02-01T04:44:02.775Z,79.99
2023-02-01T04:46:36.142Z,80.17
2023-02-01T04:49:11.033Z,80.41
2023-02-01T04:51:45.171Z,80.60
2023-02-01T04:54:18.885Z,80.62
2023-02-01T04:56:52.126Z,80.07
2023-02-01T04:59:26.860Z,80.67
2023-02-01T05:02:00.357Z,80.82
2023-02-01T05:04:33.878Z,80.84
2023-02-01T05:07:07.459Z,81.02
2023-02-01T05:09:41.137Z,81.15
2023-02-01T05:12:32.665Z,80.95
2023-02-01T05:15:09.046Z,80.67
2023-02-01T05:17:43.278Z,81.25
2023-02-01T05:20:16.732Z,80.93
2023-02-01T05:22:49.946Z,80.74
2023-02-01T05:25:23.463Z,80.50
2023-02-01T05:27:56.913Z,80.71
2023-02-01T05:30:33.521Z,80.76
2023-02-01T05:33:07.373Z,81.72
2023-02-01T05:35:40.783Z,81.07
2023-02-01T05:38:17.443Z,80.49
2023-02-01T05:40:50.938Z,79.48
2023-02-01T05:43:24.508Z,79.63
2023-02-01T05:45:59.691Z,80.30
2023-02-01T05:48:33.284Z,79.76
2023-02-01T05:51:06.745Z,78.88
2023-02-01T05:53:40.026Z,79.00
2023-02-01T05:56:13.335Z,79.35
2023-02-01T05:58:46.678Z,79.07
2023-02-01T06:01:21.350Z,79.11
2023-02-01T06:03:54.757Z,78.80
2023-02-01T06:06:28.625Z,78.47
2023-02-01T06:09:02.053Z,78.11
2023-02-01T06:11:35.424Z,77.97
2023-02-01T06:14:08.971Z,77.85
2023-02-01T06:16:43.701Z,78.40
2023-02-01T06:19:17.385Z,77.64
2023-02-01T06:21:50.894Z,76.04
2023-02-01T06:24:24.560Z,76.40
2023-02-01T06:26:57.956Z,76.47
2023-02-01T06:29:31.400Z,76.50
2023-02-01T06:32:06.205Z,75.99
2023-02-01T06:34:40.631Z,76.01
2023-02-01T06:37:13.926Z,75.81
2023-02-01T06:39:47.934Z,74.96
2023-02-01T06:42:21.450Z,75.32
2023-02-01T06:44:54.660Z,74.77
2023-02-01T06:47:29.578Z,74.50
2023-02-01T06:50:03.993Z,74.16
2023-02-01T06:52:37.877Z,74.25
2023-02-01T06:55:11.987Z,74.85
2023-02-01T06:57:45.692Z,73.47
2023-02-01T07:00:20.053Z,73.91
2023-02-01T07:02:54.694Z,74.07
2023-02-01T07:05:28.069Z,73.30
2023-02-01T07:08:01.350Z,73.22
2023-02-01T07:10:36.418Z,73.17
2023-02-01T07:13:10.373Z,72.11
2023-02-01T07:15:43.791Z,71.96
2023-02-01T07:18:18.903Z,72.16
2023-02-01T07:20:52.594Z,71.74
2023-02-01T07:23:25.873Z,71.20
2023-02-01T07:26:02.251Z,71.04
2023-02-01T07:28:37.168Z,70.61
2023-02-01T07:31:12.057Z,69.80
2023-02-01T07:33:47.323Z,68.79
2023-02-01T07:36:21.629Z,69.67
2023-02-01T07:38:56.845Z,69.51
2023-02-01T07:41:31.031Z,69.73
2023-02-01T07:44:04.315Z,69.00
2023-02-01T07:46:37.763Z,69.15
2023-02-01T07:49:14.935Z,69.51
2023-02-01T07:51:48.122Z,68.91
2023-02-01T07:54:21.699Z,69.35
2023-02-01T07:56:55.448Z,68.85
2023-02-01T07:59:28.722Z,69.13
2023-02-01T08:02:01.116Z,67.68
2023-02-01T08:04:35.816Z,68.29
2023-02-01T08:07:09.091Z,68.13
2023-02-01T08:09:42.702Z,68.61
2023-02-01T08:12:17.627Z,67.71
2023-02-01T08:14:52.006Z,68.45
2023-02-01T08:17:25.643Z,68.99
2023-02-01T08:20:00.810Z,69.17
2023-02-01T08:22:34.644Z,67.15
2023-02-01T08:25:08.905Z,67.29
2023-02-01T08:27:42.721Z,66.67
2023-02-01T08:30:16.739Z,67.26
2023-02-01T08:32:50.059Z,67.88
2023-02-01T08:35:37.851Z,67.20
2023-02-01T08:38:16.285Z,67.06
2023-02-01T08:40:49.602Z,66.89
2023-02-01T08:43:22.677Z,66.68
2023-02-01T08:45:57.295Z,66.29
2023-02-01T08:48:30.844Z,66.43
2023-02-01T08:51:06.714Z,67.10
2023-02-01T08:53:42.371Z,65.06
2023-02-01T08:56:18.006Z,66.25
2023-02-01T08:58:51.344Z,65.67
2023-02-01T09:01:24.720Z,65.26
2023-02-01T09:03:57.929Z,64.93
2023-02-01T09:06:32.707Z,64.58
2023-02-01T09:09:06.311Z,64.79
2023-02-01T09:11:39.564Z,65.41
2023-02-01T09:14:13.258Z,63.44
2023-02-01T09:16:46.839Z,63.51
2023-02-01T09:19:26.264Z,64.20
2023-02-01T09:22:01.734Z,64.35
2023-02-01T09:24:35.454Z,63.40
2023-02-01T09:27:09.019Z,64.39
2023-02-01T09:29:42.393Z,61.93
2023-02-01T09:32:15.624Z,60.96
2023-02-01T09:34:49.541Z,60.18
2023-02-01T09:37:24.394Z,59.86
2023-02-01T09:39:58.046Z,60.13
2023-02-01T09:42:52.037Z,61.38
2023-02-01T09:45:35.213Z,60.96
2023-02-01T09:48:17.638Z,60.93
2023-02-01T09:50:56.080Z,59.91
2023-02-01T09:53:35.256Z,60.12
2023-02-01T09:56:13.953Z,59.56
2023-02-01T09:58:54.252Z,60.20
2023-02-01T10:01:30.374Z,60.46
2023-02-01T10:04:08.079Z,59.86
2023-02-01T10:06:55.529Z,59.75
2023-02-01T10:09:44.902Z,59.00
2023-02-01T10:12:40.538Z,59.05
2023-02-01T10:15:37.362Z,57.72
2023-02-01T10:18:36.590Z,57.65
2023-02-01T10:21:21.632Z,57.72
2023-02-01T10:24:31.217Z,57.38
2023-02-01T10:27:14.728Z,57.09
2023-02-01T10:29:54.438Z,57.04
2023-02-01T10:32:32.847Z,57.07
2023-02-01T10:35:15.314Z,56.75
2023-02-01T10:37:48.756Z,56.63
2023-02-01T10:40:25.824Z,56.32
2023-02-01T10:43:03.194Z,55.63
2023-02-01T10:45:36.739Z,55.37
2023-02-01T10:48:10.851Z,55.65
2023-02-01T10:50:53.537Z,55.67
2023-02-01T10:53:33.516Z,55.70
2023-02-01T10:56:09.604Z,55.27
2023-02-01T10:58:49.631Z,54.26
2023-02-01T11:01:27.391Z,54.03
2023-02-01T11:04:02.441Z,54.38
2023-02-01T11:06:38.642Z,53.67
2023-02-01T11:09:18.807Z,54.07
2023-02-01T11:11:58.681Z,53.89
2023-02-01T11:14:41.216Z,53.86
2023-02-01T11:17:29.373Z,54.95
2023-02-01T11:20:05.235Z,56.20
2023-02-01T11:22:38.837Z,54.67
2023-02-01T11:25:16.059Z,55.13
2023-02-01T11:27:55.240Z,55.08
2023-02-01T11:30:36.870Z,54.07
2023-02-01T11:33:17.501Z,52.77
2023-02-01T11:35:51.502Z,52.93
2023-02-01T11:38:31.969Z,54.38
2023-02-01T11:41:16.198Z,54.23
2023-02-01T11:43:55.283Z,54.07
2023-02-01T11:46:33.295Z,54.72
2023-02-01T11:49:21.314Z,53.75
2023-02-01T11:52:06.192Z,54.37
2023-02-01T11:55:01.229Z,52.39
2023-02-01T11:57:53.999Z,51.71
2023-02-01T12:00:49.115Z,53.19
2023-02-01T12:03:59.397Z,52.74
2023-02-01T12:06:47.577Z,52.90
2023-02-01T12:09:40.523Z,52.20
2023-02-01T12:12:21.586Z,52.59
2023-02-01T12:15:24.487Z,53.67
2023-02-01T12:18:33.025Z,53.20
2023-02-01T12:21:19.771Z,54.43
2023-02-01T12:24:10.348Z,53.53
2023-02-01T12:26:52.802Z,53.47
2023-02-01T12:30:01.875Z,53.42
2023-02-01T12:32:46.273Z,53.33
2023-02-01T12:35:45.314Z,53.84
2023-02-01T12:38:35.268Z,53.11
2023-02-01T12:41:22.235Z,53.04
2023-02-01T12:43:59.136Z,52.50
2023-02-01T12:46:35.500Z,52.88
2023-02-01T12:49:15.078Z,52.04
2023-02-01T12:51:51.715Z,53.31
2023-02-01T12:54:33.441Z,53.21
2023-02-01T12:57:11.718Z,53.04
2023-02-01T12:59:52.007Z,52.23
2023-02-01T13:02:37.061Z,52.77
2023-02-01T13:05:18.450Z,53.26
2023-02-01T13:07:57.405Z,52.98
2023-02-01T13:10:36.223Z,53.10
2023-02-01T13:13:16.606Z,52.09
2023-02-01T13:15:58.208Z,53.30
2023-02-01T13:18:38.421Z,52.71
2023-02-01T13:21:17.086Z,52.56
2023-02-01T13:23:52.299Z,53.21
2023-02-01T13:26:27.371Z,52.03
2023-02-01T13:29:06.206Z,52.32
2023-02-01T13:32:03.213Z,53.42
2023-02-01T13:35:03.955Z,52.58
2023-02-01T13:38:24.619Z,52.99
2023-02-01T13:41:16.592Z,51.38
2023-02-01T13:43:55.223Z,51.78
2023-02-01T13:46:30.015Z,52.03
2023-02-01T13:49:05.325Z,51.39
2023-02-01T13:51:43.176Z,51.20
2023-02-01T13:54:29.717Z,50.02
2023-02-01T13:57:04.798Z,51.05
2023-02-01T13:59:51.896Z,51.44
2023-02-01T14:02:54.125Z,50.00
2023-02-01T14:06:04.730Z,51.12
2023-02-01T14:08:44.981Z,51.20
2023-02-01T14:11:39.703Z,51.92
2023-02-01T14:14:49.961Z,51.68
2023-02-01T14:17:35.988Z,52.00
2023-02-01T14:20:42.347Z,51.74
2023-02-01T14:23:40.849Z,51.61
2023-02-01T14:26:23.287Z,52.27
2023-02-01T14:29:03.029Z,52.27
2023-02-01T14:31:44.582Z,52.44
2023-02-01T14:34:23.180Z,52.87
2023-02-01T14:37:00.368Z,52.41
2023-02-01T14:39:52.739Z,52.97
2023-02-01T14:42:29.102Z,52.39
2023-02-01T14:45:51.196Z,53.69
2023-02-01T14:48:48.024Z,53.21
2023-02-01T14:51:23.109Z,53.58
2023-02-01T14:53:56.681Z,53.26
2023-02-01T14:56:30.343Z,54.03
2023-02-01T14:59:11.039Z,54.53
2023-02-01T15:01:52.993Z,54.14
2023-02-01T15:04:29.742Z,54.05
2023-02-01T15:07:10.616Z,53.15
2023-02-01T15:09:47.690Z,53.25
2023-02-01T15:12:28.597Z,52.89
2023-02-01T15:15:13.800Z,53.55
2023-02-01T15:17:56.256Z,54.09
2023-02-01T15:20:34.037Z,53.59
2023-02-01T15:23:18.029Z,53.50
2023-02-01T15:25:53.671Z,54.16
2023-02-01T15:28:28.390Z,54.65
2023-02-01T15:31:03.979Z,54.92
2023-02-01T15:33:37.506Z,53.67
2023-02-01T15:36:14.037Z,54.39
2023-02-01T15:38:47.819Z,54.80
2023-02-01T15:41:23.964Z,55.14
2023-02-01T15:44:07.873Z,55.48
2023-02-01T15:46:43.480Z,55.80
2023-02-01T15:49:25.661Z,54.96
2023-02-01T15:52:02.354Z,54.75
2023-02-01T15:54:45.671Z,54.51
2023-02-01T15:57:22.897Z,55.29
2023-02-01T15:59:57.627Z,55.11
2023-02-01T16:02:35.333Z,55.01
2023-02-01T16:05:34.430Z,54.22
2023-02-01T16:08:15.036Z,55.63
2023-02-01T16:10:51.441Z,55.04
2023-02-01T16:13:25.530Z,55.75
2023-02-01T16:15:59.372Z,55.27
2023-02-01T16:18:32.950Z,55.39
2023-02-01T16:21:08.971Z,55.57
2023-02-01T16:23:44.073Z,55.67
2023-02-01T16:26:17.268Z,55.66
2023-02-01T16:28:50.716Z,55.55
2023-02-01T16:31:29.289Z,56.48
2023-02-01T16:34:03.187Z,55.99
2023-02-01T16:36:36.697Z,55.93
2023-02-01T16:39:15.003Z,55.90
2023-02-01T16:41:48.664Z,55.51
2023-02-01T16:44:21.980Z,55.67
2023-02-01T16:46:55.197Z,56.20
2023-02-01T16:49:28.787Z,56.37
2023-02-01T16:52:02.417Z,56.89
2023-02-01T16:54:37.186Z,56.57
2023-02-01T16:57:14.546Z,56.70
2023-02-01T16:59:47.772Z,56.98
2023-02-01T17:02:22.911Z,57.63
2023-02-01T17:04:56.577Z,58.24
2023-02-01T17:07:31.471Z,57.77
2023-02-01T17:10:07.353Z,57.58
2023-02-01T17:12:42.642Z,56.83
2023-02-01T17:15:16.373Z,57.19
2023-02-01T17:17:54.995Z,57.18
2023-02-01T17:20:33.064Z,58.24
2023-02-01T17:23:06.536Z,59.06
2023-02-01T17:25:42.040Z,59.28
2023-02-01T17:28:15.518Z,60.42
2023-02-01T17:30:49.007Z,60.84
2023-02-01T17:33:23.679Z,61.12
2023-02-01T17:35:57.439Z,61.60
2023-02-01T17:38:30.967Z,60.88
2023-02-01T17:41:06.412Z,61.59
2023-02-01T17:43:40.311Z,61.94
2023-02-01T17:46:15.592Z,61.57
2023-02-01T17:48:49.092Z,61.54
2023-02-01T17:51:25.133Z,62.03
2023-02-01T17:53:58.402Z,61.21
2023-02-01T17:56:33.979Z,61.76
2023-02-01T17:59:07.239Z,61.53
2023-02-01T18:01:41.291Z,61.20
2023-02-01T18:04:18.325Z,60.98
2023-02-01T18:06:51.641Z,60.43
2023-02-01T18:09:25.416Z,60.93
2023-02-01T18:12:01.202Z,61.17
2023-02-01T18:14:34.707Z,61.11
2023-02-01T18:17:08.195Z,61.56
2023-02-01T18:19:42.053Z,62.30
2023-02-01T18:22:25.713Z,62.59
2023-02-01T18:24:59.071Z,62.68
2023-02-01T18:27:33.675Z,62.41
2023-02-01T18:30:07.886Z,61.66
2023-02-01T18:32:41.934Z,61.92
2023-02-01T18:35:21.429Z,62.44
2023-02-01T18:37:56.542Z,63.22
2023-02-01T18:40:33.122Z,62.71
2023-02-01T18:43:15.441Z,63.34
2023-02-01T18:45:49.372Z,63.26
2023-02-01T18:48:23.014Z,63.46
2023-02-01T18:50:57.850Z,64.28
2023-02-01T18:53:31.361Z,63.47
2023-02-01T18:56:04.896Z,63.65
2023-02-01T18:58:39.844Z,64.53
2023-02-01T19:01:17.192Z,64.14
2023-02-01T19:03:53.634Z,64.17
2023-02-01T19:06:30.013Z,64.26
2023-02-01T19:09:03.359Z,64.64
2023-02-01T19:11:37.160Z,64.12
2023-02-01T19:14:12.432Z,64.18
2023-02-01T19:16:46.145Z,64.99
2023-02-01T19:19:19.586Z,65.41
2023-02-01T19:21:52.850Z,64.67
2023-02-01T19:24:28.065Z,65.12
2023-02-01T19:27:01.656Z,64.74
2023-02-01T19:29:37.545Z,64.78
2023-02-01T19:32:10.790Z,64.49
2023-02-01T19:34:44.177Z,65.42
2023-02-01T19:37:17.389Z,64.85
2023-02-01T19:39:50.864Z,65.20
2023-02-01T19:42:24.303Z,64.48
2023-02-01T19:44:59.286Z,64.80
2023-02-01T19:47:32.886Z,65.20
2023-02-01T19:50:07.686Z,65.15
2023-02-01T19:52:41.009Z,64.86
2023-02-01T19:55:15.118Z,64.16
2023-02-01T19:57:49.017Z,63.86
2023-02-01T20:00:23.511Z,63.86
2023-02-01T20:02:58.470Z,64.11
2023-02-01T20:05:31.729Z,63.88
2023-02-01T20:08:05.364Z,63.66
2023-02-01T20:10:43.670Z,62.70
2023-02-01T20:13:18.391Z,61.51
2023-02-01T20:15:58.483Z,61.80
2023-02-01T20:18:31.843Z,61.31
2023-02-01T20:21:05.439Z,61.88
2023-02-01T20:23:38.689Z,61.18
2023-02-01T20:26:13.204Z,60.48
2023-02-01T20:28:46.942Z,60.11
2023-02-01T20:31:21.723Z,59.57
2023-02-01T20:33:55.147Z,60.72
2023-02-01T20:36:29.928Z,59.42
2023-02-01T20:39:03.601Z,59.83
2023-02-01T20:41:36.921Z,61.54
2023-02-01T20:44:11.079Z,59.62
2023-02-01T20:46:45.650Z,59.29
2023-02-01T20:49:18.928Z,59.84
2023-02-01T20:51:52.885Z,59.22
2023-02-01T20:54:26.300Z,59.38
2023-02-01T20:56:59.952Z,59.54
2023-02-01T20:59:33.378Z,60.02
2023-02-01T21:02:08.813Z,59.98
2023-02-01T21:04:42.202Z,60.08
2023-02-01T21:07:15.390Z,59.99
2023-02-01T21:09:48.647Z,60.00
2023-02-01T21:12:22.780Z,60.31
2023-02-01T21:14:56.855Z,60.16
2023-02-01T21:17:33.190Z,60.63
2023-02-01T21:20:08.590Z,60.81
2023-02-01T21:22:41.762Z,60.73
2023-02-01T21:25:15.066Z,61.63
2023-02-01T21:27:48.324Z,62.11
2023-02-01T21:30:22.092Z,62.01
2023-02-01T21:32:59.467Z,62.04
2023-02-01T21:35:33.158Z,62.21
2023-02-01T21:38:06.426Z,63.36
2023-02-01T21:40:39.650Z,63.59
2023-02-01T21:43:13.024Z,63.81
2023-02-01T21:45:51.381Z,63.92
2023-02-01T21:48:26.851Z,64.44
2023-02-01T21:51:00.266Z,64.34
2023-02-01T21:53:33.840Z,64.83
2023-02-01T21:56:07.879Z,64.56
2023-02-01T21:58:42.065Z,65.01
2023-02-01T22:01:15.155Z,65.50
2023-02-01T22:03:50.268Z,64.97
2023-02-01T22:06:24.872Z,64.74
2023-02-01T22:08:58.846Z,65.02
2023-02-01T22:11:32.545Z,64.76
2023-02-01T22:14:06.077Z,64.38
2023-02-01T22:16:40.141Z,64.38
2023-02-01T22:19:15.450Z,64.40
2023-02-01T22:21:49.620Z,64.36
2023-02-01T22:24:22.673Z,64.52
2023-02-01T22:26:55.895Z,64.80
2023-02-01T22:29:47.433Z,65.02
2023-02-01T22:32:20.722Z,65.51
2023-02-01T22:34:56.158Z,65.67
2023-02-01T22:37:29.531Z,65.57
2023-02-01T22:40:04.763Z,65.79
2023-02-01T22:42:38.265Z,66.45
2023-02-01T22:45:12.267Z,65.83
2023-02-01T22:47:45.318Z,66.69
2023-02-01T22:50:20.581Z,66.46
2023-02-01T22:52:53.875Z,67.14
2023-02-01T22:55:27.125Z,67.12
2023-02-01T22:58:00.875Z,66.96
2023-02-01T23:00:34.125Z,66.92
2023-02-01T23:03:07.858Z,67.56
2023-02-01T23:05:42.541Z,68.03
2023-02-01T23:08:15.743Z,68.16
2023-02-01T23:10:49.020Z,68.48
2023-02-01T23:13:22.658Z,68.98
2023-02-01T23:15:56.628Z,69.31
2023-02-01T23:18:30.608Z,69.20
2023-02-01T23:21:07.485Z,69.96
2023-02-01T23:23:40.956Z,70.29
2023-02-01T23:26:14.436Z,69.94
2023-02-01T23:28:49.787Z,71.46
2023-02-01T23:31:25.329Z,70.60
2023-02-01T23:33:59.866Z,70.98
2023-02-01T23:36:34.868Z,70.80
2023-02-01T23:39:07.978Z,70.69
2023-02-01T23:41:41.433Z,71.19
2023-02-01T23:44:14.804Z,71.34
2023-02-01T23:46:48.068Z,70.98
2023-02-01T23:49:21.494Z,71.74
2023-02-01T23:51:56.447Z,71.82
2023-02-01T23:54:29.593Z,70.51
2023-02-01T23:57:07.907Z,70.99
2023-02-01T23:59:41.456Z,70.54
